Time;durP1;ratioP1;P1;durP2;ratioP2;P2;SDS_P1;SDS_P2;PMS_P1;PMS_P2;Temp;Humidity;BMP_temperature;BMP_pressure;BME280_temperature;BME280_humidity;BME280_pressure;Samples;Min_cycle;Max_cycle;Signal;HPM_P1;HPM_P2
2021/01/12 00:02:20;;;;;;;16.63;9.93;;;0.00;99.90;;;;;;5075481;28;20202;-79
2021/01/12 00:04:46;;;;;;;18.02;10.15;;;0.00;99.90;;;;;;5076367;28;20296;-79
2021/01/12 00:07:15;;;;;;;11.98;8.85;;;0.00;99.90;;;;;;5076161;28;20296;-79
2021/01/12 00:09:41;;;;;;;13.35;9.02;;;0.00;99.90;;;;;;5076167;28;20296;-78
2021/01/12 00:12:08;;;;;;;14.55;8.70;;;0.00;99.90;;;;;;5076318;28;20202;-78
2021/01/12 00:14:34;;;;;;;19.40;9.85;;;0.00;99.90;;;;;;5074692;28;20297;-79
2021/01/12 00:17:03;;;;;;;19.98;10.13;;;0.00;99.90;;;;;;5075894;28;20202;-78
2021/01/12 00:19:30;;;;;;;18.35;11.05;;;-0.10;99.90;;;;;;5075843;28;20261;-79
2021/01/12 00:21:57;;;;;;;16.55;9.85;;;-0.10;99.90;;;;;;5075717;28;20293;-79
2021/01/12 00:24:24;;;;;;;16.48;9.10;;;-0.20;99.90;;;;;;5076085;28;20297;-79
2021/01/12 00:26:51;;;;;;;16.02;9.65;;;-0.20;99.90;;;;;;5075957;28;20328;-79
2021/01/12 00:29:18;;;;;;;13.23;9.98;;;-0.20;99.90;;;;;;5075543;28;20301;-78
2021/01/12 00:31:45;;;;;;;17.35;10.02;;;-0.20;99.90;;;;;;5074506;28;20713;-78
2021/01/12 00:34:13;;;;;;;16.05;8.73;;;-0.30;99.90;;;;;;5076060;28;20288;-78
2021/01/12 00:36:43;;;;;;;15.38;9.18;;;-0.20;99.90;;;;;;5075539;28;20296;-78
2021/01/12 00:39:10;;;;;;;12.90;8.30;;;-0.10;99.90;;;;;;5075568;28;20233;-78
2021/01/12 00:41:38;;;;;;;15.82;8.55;;;-0.10;99.90;;;;;;5075365;28;20202;-78
2021/01/12 00:44:05;;;;;;;15.55;9.32;;;0.00;99.90;;;;;;5075628;28;20202;-79
2021/01/12 00:46:31;;;;;;;16.92;10.43;;;0.00;99.90;;;;;;5074208;28;20284;-78
2021/01/12 00:48:58;;;;;;;15.15;8.52;;;0.00;99.90;;;;;;5075414;28;20392;-79
2021/01/12 00:51:33;;;;;;;14.60;8.93;;;0.10;99.90;;;;;;5075510;28;20212;-79
2021/01/12 00:54:02;;;;;;;13.45;8.25;;;0.10;99.90;;;;;;5073373;28;20664;-78
2021/01/12 00:56:28;;;;;;;15.55;10.52;;;0.10;99.90;;;;;;5075448;28;20229;-78
2021/01/12 00:58:56;;;;;;;16.48;8.77;;;0.00;99.90;;;;;;5075188;28;20673;-78
2021/01/12 01:01:22;;;;;;;16.63;8.73;;;0.10;99.90;;;;;;5073224;28;20304;-80
2021/01/12 01:03:48;;;;;;;14.63;8.95;;;0.10;99.90;;;;;;5075063;28;20682;-79
2021/01/12 01:06:15;;;;;;;16.67;9.35;;;0.10;99.90;;;;;;5075143;28;20213;-78
2021/01/12 01:08:41;;;;;;;16.65;9.50;;;0.20;99.90;;;;;;5075011;28;20205;-78
2021/01/12 01:11:08;;;;;;;15.32;8.70;;;0.30;99.90;;;;;;5075134;28;20291;-78
2021/01/12 01:13:36;;;;;;;11.60;7.85;;;0.30;99.90;;;;;;5075020;28;20232;-80
2021/01/12 01:16:04;;;;;;;12.63;7.93;;;0.40;99.90;;;;;;5073416;28;20284;-79
2021/01/12 01:18:30;;;;;;;17.98;9.65;;;0.50;99.90;;;;;;5074722;28;20255;-79
2021/01/12 01:20:57;;;;;;;11.80;7.65;;;0.40;99.90;;;;;;5074931;28;20288;-80
2021/01/12 01:23:23;;;;;;;16.63;8.40;;;0.50;99.90;;;;;;5074942;28;20248;-80
2021/01/12 01:25:50;;;;;;;12.32;8.50;;;0.50;99.90;;;;;;5074728;28;20288;-80
2021/01/12 01:28:17;;;;;;;17.35;7.20;;;0.50;99.90;;;;;;5074448;28;20764;-80
2021/01/12 01:30:43;;;;;;;15.52;8.20;;;0.60;99.90;;;;;;5073265;28;20292;-80
2021/01/12 01:33:10;;;;;;;14.20;8.20;;;0.60;99.90;;;;;;5074457;28;20649;-80
2021/01/12 01:35:37;;;;;;;13.90;8.40;;;0.60;99.90;;;;;;5074491;28;20292;-80
2021/01/12 01:38:03;;;;;;;14.07;8.75;;;0.60;99.90;;;;;;5074549;28;20740;-80
2021/01/12 01:40:31;;;;;;;14.23;8.27;;;0.70;99.90;;;;;;5074212;28;20708;-80
2021/01/12 01:42:57;;;;;;;15.07;8.07;;;0.70;99.90;;;;;;5074313;28;20208;-81
2021/01/12 01:45:24;;;;;;;10.73;7.15;;;0.70;99.90;;;;;;5072976;28;20281;-80
2021/01/12 01:47:52;;;;;;;15.70;8.32;;;0.70;99.90;;;;;;5074578;28;20296;-80
2021/01/12 01:50:20;;;;;;;12.70;7.97;;;0.70;99.90;;;;;;5074332;28;20226;-80
2021/01/12 01:52:51;;;;;;;8.23;6.70;;;0.80;99.90;;;;;;5074443;28;20284;-80
2021/01/12 01:55:17;;;;;;;12.45;7.82;;;0.80;99.90;;;;;;5074333;28;20626;-80
2021/01/12 01:57:44;;;;;;;12.75;8.15;;;0.90;99.90;;;;;;5074319;28;20233;-80
2021/01/12 02:00:11;;;;;;;11.73;7.05;;;0.80;99.90;;;;;;5073560;28;20320;-81
2021/01/12 02:02:47;;;;;;;12.88;8.55;;;0.80;99.90;;;;;;5073979;28;20774;-80
2021/01/12 02:05:15;;;;;;;14.38;7.45;;;0.80;99.90;;;;;;5073511;28;20205;-81
2021/01/12 02:07:44;;;;;;;10.68;7.13;;;0.80;99.90;;;;;;5073812;28;20229;-79
2021/01/12 02:10:14;;;;;;;12.35;6.35;;;0.90;99.90;;;;;;5073902;28;20280;-80
2021/01/12 02:12:46;;;;;;;14.27;8.05;;;0.90;99.90;;;;;;5073909;28;20201;-81
2021/01/12 02:15:18;;;;;;;12.55;7.32;;;0.90;99.90;;;;;;5072883;28;20244;-82
2021/01/12 02:17:46;;;;;;;13.32;7.20;;;1.00;99.90;;;;;;5073699;28;20292;-79
2021/01/12 02:20:17;;;;;;;12.95;6.78;;;1.00;99.90;;;;;;5073879;28;20237;-80
2021/01/12 02:23:02;;;;;;;6.85;5.05;;;1.00;99.90;;;;;;5073748;28;20245;-80
2021/01/12 02:25:31;;;;;;;10.80;6.93;;;1.10;99.90;;;;;;5073626;28;20205;-80
2021/01/12 02:27:57;;;;;;;10.10;5.88;;;1.00;99.90;;;;;;5073692;28;20646;-80
2021/01/12 02:30:24;;;;;;;7.65;6.45;;;1.20;99.90;;;;;;5072616;28;20304;-79
2021/01/12 02:32:51;;;;;;;11.65;6.45;;;1.20;99.90;;;;;;5073298;28;20634;-80
2021/01/12 02:35:20;;;;;;;9.48;5.85;;;1.20;99.90;;;;;;5073209;28;20288;-79
2021/01/12 02:37:47;;;;;;;9.35;6.05;;;1.20;99.90;;;;;;5073313;28;20244;-79
2021/01/12 02:40:15;;;;;;;9.88;6.57;;;1.10;99.90;;;;;;5073435;28;20230;-79
2021/01/12 02:42:43;;;;;;;11.05;6.15;;;1.10;99.90;;;;;;5073352;28;20681;-81
2021/01/12 02:45:11;;;;;;;11.75;5.68;;;1.10;99.90;;;;;;5072214;28;20289;-81
2021/01/12 02:47:38;;;;;;;8.55;5.40;;;1.20;99.90;;;;;;5073045;28;20294;-80
2021/01/12 02:50:06;;;;;;;9.23;5.63;;;1.20;99.90;;;;;;5073288;28;20202;-78
2021/01/12 02:52:32;;;;;;;9.75;6.25;;;1.20;99.90;;;;;;5073259;28;20629;-81
2021/01/12 02:54:59;;;;;;;8.40;4.68;;;1.30;99.90;;;;;;5073568;28;20288;-81
2021/01/12 02:57:25;;;;;;;10.02;5.40;;;1.30;99.90;;;;;;5073238;28;20735;-81
2021/01/12 02:59:52;;;;;;;10.05;6.05;;;1.30;99.90;;;;;;5072040;28;20320;-81
2021/01/12 03:02:27;;;;;;;8.90;5.90;;;1.40;99.90;;;;;;5072911;28;20220;-79
2021/01/12 03:04:53;;;;;;;5.63;4.85;;;1.40;99.90;;;;;;5073202;28;20211;-80
2021/01/12 03:07:20;;;;;;;6.68;4.90;;;1.40;99.90;;;;;;5076176;28;20221;-79
2021/01/12 03:09:52;;;;;;;10.48;4.85;;;1.40;99.90;;;;;;5075364;28;20281;-79
2021/01/12 03:12:21;;;;;;;8.10;5.28;;;1.40;99.90;;;;;;5073698;28;20204;-80
2021/01/12 03:14:47;;;;;;;8.15;5.85;;;1.40;99.90;;;;;;5072268;28;20237;-80
2021/01/12 03:17:15;;;;;;;9.55;5.07;;;1.40;99.90;;;;;;5072626;28;20720;-79
2021/01/12 03:19:49;;;;;;;7.68;4.70;;;1.50;99.90;;;;;;5073106;28;20345;-79
2021/01/12 03:22:16;;;;;;;6.38;4.35;;;1.50;99.90;;;;;;5072620;28;20296;-79
2021/01/12 03:24:42;;;;;;;7.00;5.97;;;1.50;99.90;;;;;;5073033;28;20205;-79
2021/01/12 03:27:09;;;;;;;11.27;5.47;;;1.50;99.90;;;;;;5072703;28;20256;-80
2021/01/12 03:29:35;;;;;;;7.63;4.68;;;1.60;99.90;;;;;;5071633;28;20288;-80
2021/01/12 03:32:02;;;;;;;10.90;4.50;;;1.50;99.90;;;;;;5072163;28;20244;-79
2021/01/12 03:34:29;;;;;;;7.50;4.93;;;1.60;99.90;;;;;;5072876;28;20292;-79
2021/01/12 03:36:56;;;;;;;5.22;4.32;;;1.60;99.90;;;;;;5073171;28;20297;-80
2021/01/12 03:39:22;;;;;;;5.82;4.43;;;1.60;99.90;;;;;;5072559;28;20323;-79
2021/01/12 03:41:48;;;;;;;4.10;3.25;;;1.60;99.90;;;;;;5072604;28;20819;-80
2021/01/12 03:44:15;;;;;;;8.00;4.47;;;1.60;99.90;;;;;;5072445;28;20288;-81
2021/01/12 03:46:41;;;;;;;5.20;3.05;;;1.60;99.90;;;;;;5071305;28;20296;-80
2021/01/12 03:49:10;;;;;;;6.75;3.97;;;1.60;99.90;;;;;;5072760;28;20236;-79
2021/01/12 03:51:38;;;;;;;8.00;3.80;;;1.60;99.90;;;;;;5072644;28;20233;-80
2021/01/12 03:54:04;;;;;;;6.65;5.03;;;1.70;99.90;;;;;;5072650;28;20288;-80
2021/01/12 03:56:31;;;;;;;5.00;3.42;;;1.70;99.90;;;;;;5072405;28;20728;-80
2021/01/12 03:58:57;;;;;;;4.25;3.17;;;1.70;99.90;;;;;;5072508;28;20857;-78
2021/01/12 04:01:24;;;;;;;9.68;4.70;;;1.70;99.90;;;;;;5071155;28;20245;-80
2021/01/12 04:03:52;;;;;;;5.95;3.47;;;1.80;99.90;;;;;;5072601;28;20344;-79
2021/01/12 04:06:18;;;;;;;8.40;4.40;;;1.80;99.90;;;;;;5072490;28;20288;-80
2021/01/12 04:08:47;;;;;;;5.45;4.07;;;1.80;99.90;;;;;;5072165;28;20288;-81
2021/01/12 04:11:15;;;;;;;7.88;4.18;;;1.80;99.90;;;;;;5072525;28;20201;-79
2021/01/12 04:13:41;;;;;;;8.30;4.07;;;1.70;99.90;;;;;;5072448;28;20233;-81
2021/01/12 04:16:08;;;;;;;5.95;3.65;;;1.80;99.90;;;;;;5070757;28;20289;-81
2021/01/12 04:18:35;;;;;;;6.45;3.95;;;1.80;99.90;;;;;;5072423;28;20292;-81
2021/01/12 04:21:02;;;;;;;4.68;3.85;;;1.80;99.90;;;;;;5072213;28;20334;-81
2021/01/12 04:23:29;;;;;;;4.45;3.35;;;1.80;99.90;;;;;;5072293;28;20736;-79
2021/01/12 04:25:56;;;;;;;6.10;3.95;;;1.90;99.90;;;;;;5072223;28;20698;-80
2021/01/12 04:28:23;;;;;;;6.15;3.80;;;1.90;99.90;;;;;;5072217;28;20336;-79
2021/01/12 04:30:49;;;;;;;4.50;3.25;;;2.00;99.90;;;;;;5074323;28;20241;-79
2021/01/12 04:33:15;;;;;;;6.95;3.47;;;1.90;99.90;;;;;;5075826;28;20201;-79
2021/01/12 04:35:42;;;;;;;7.47;3.17;;;1.90;99.90;;;;;;5075807;28;20233;-79
2021/01/12 04:38:08;;;;;;;5.45;3.15;;;1.90;99.90;;;;;;5076094;28;20296;-81
2021/01/12 04:40:36;;;;;;;7.60;6.18;;;1.90;99.90;;;;;;5075846;28;20248;-81
2021/01/12 04:43:03;;;;;;;10.93;7.40;;;1.90;99.90;;;;;;5075528;28;20794;-80
2021/01/12 04:45:30;;;;;;;42.40;38.05;;;2.00;99.90;;;;;;5074405;28;20292;-82
2021/01/12 04:47:59;;;;;;;11.32;6.40;;;2.00;99.90;;;;;;5075300;28;20233;-80
2021/01/12 04:50:25;;;;;;;9.32;8.43;;;2.00;99.90;;;;;;5075508;28;20317;-80
2021/01/12 04:52:53;;;;;;;6.40;4.28;;;2.10;99.90;;;;;;5075624;28;20296;-81
2021/01/12 04:55:20;;;;;;;7.20;4.22;;;2.10;99.90;;;;;;5075417;28;20665;-81
2021/01/12 04:57:48;;;;;;;8.10;3.67;;;2.10;99.90;;;;;;5075461;28;20334;-80
2021/01/12 05:00:18;;;;;;;10.68;5.65;;;2.10;99.90;;;;;;5074286;28;20269;-79
2021/01/12 05:02:59;;;;;;;11.93;8.15;;;2.10;99.90;;;;;;5074850;28;20217;-81
2021/01/12 05:05:28;;;;;;;25.55;13.40;;;2.10;99.90;;;;;;5075347;28;20205;-80
2021/01/12 05:07:59;;;;;;;34.40;19.75;;;2.10;99.90;;;;;;5075094;28;20296;-81
2021/01/12 05:10:26;;;;;;;31.65;18.02;;;2.00;99.90;;;;;;5075246;28;20660;-81
2021/01/12 05:12:53;;;;;;;6.57;4.63;;;2.10;99.90;;;;;;5075000;28;20205;-79
2021/01/12 05:15:21;;;;;;;4.47;3.25;;;2.10;99.90;;;;;;5073927;28;20300;-80
2021/01/12 05:17:49;;;;;;;7.53;4.45;;;2.00;99.90;;;;;;5074896;28;20201;-80
2021/01/12 05:20:22;;;;;;;5.15;4.65;;;2.20;99.90;;;;;;5074848;28;20275;-80
2021/01/12 05:22:56;;;;;;;6.60;3.80;;;2.10;99.90;;;;;;5075008;28;20201;-80
2021/01/12 05:25:33;;;;;;;4.18;2.90;;;2.10;99.90;;;;;;5075032;28;20290;-82
2021/01/12 05:28:01;;;;;;;6.90;5.03;;;2.10;99.90;;;;;;5074996;28;20233;-81
2021/01/12 05:30:39;;;;;;;7.10;5.22;;;2.10;99.90;;;;;;5073434;28;20295;-80
2021/01/12 05:33:11;;;;;;;5.75;3.83;;;2.10;99.90;;;;;;5074700;28;20300;-80
2021/01/12 05:35:40;;;;;;;5.70;4.57;;;2.20;99.90;;;;;;5074960;28;20201;-82
2021/01/12 05:38:08;;;;;;;9.65;7.43;;;2.10;99.90;;;;;;5074420;28;20201;-82
2021/01/12 05:40:38;;;;;;;5.18;4.07;;;2.10;99.90;;;;;;5073819;28;20268;-83
2021/01/12 05:43:09;;;;;;;7.40;5.90;;;2.10;99.90;;;;;;5074778;28;20197;-82
2021/01/12 05:45:37;;;;;;;6.25;4.57;;;2.10;99.90;;;;;;5073287;28;20661;-82
2021/01/12 05:48:05;;;;;;;11.63;5.65;;;2.00;99.90;;;;;;5074395;28;20664;-82
2021/01/12 05:50:32;;;;;;;8.30;5.10;;;2.00;99.90;;;;;;5074280;28;20300;-81
2021/01/12 05:53:05;;;;;;;5.90;4.22;;;2.10;99.90;;;;;;5074626;28;20210;-82
2021/01/12 05:55:37;;;;;;;7.60;5.20;;;2.10;99.90;;;;;;5074619;28;20292;-86
2021/01/12 05:58:11;;;;;;;8.93;5.28;;;2.10;99.90;;;;;;5074464;28;20297;-84
2021/01/12 06:00:46;;;;;;;9.25;4.68;;;2.10;99.90;;;;;;5075607;28;20286;-82
2021/01/12 06:03:15;;;;;;;6.35;4.82;;;2.00;99.90;;;;;;5072703;28;20292;-84
2021/01/12 06:05:46;;;;;;;6.20;4.55;;;2.10;99.90;;;;;;5074258;28;20212;-84
2021/01/12 06:08:14;;;;;;;7.40;4.10;;;2.10;99.90;;;;;;5074092;28;20208;-83
2021/01/12 06:10:43;;;;;;;5.60;3.50;;;2.10;99.90;;;;;;5072674;28;20206;-84
2021/01/12 06:13:14;;;;;;;12.80;8.20;;;2.10;99.90;;;;;;5074062;28;20201;-85
2021/01/12 06:15:48;;;;;;;11.45;6.15;;;2.20;99.90;;;;;;5075244;28;20229;-82
2021/01/12 06:18:16;;;;;;;8.32;5.35;;;2.10;99.90;;;;;;5073750;28;20208;-84
2021/01/12 06:21:10;;;;;;;12.82;7.70;;;2.10;99.90;;;;;;5073595;28;20340;-83
2021/01/12 06:23:44;;;;;;;12.55;7.47;;;2.20;99.90;;;;;;5074049;28;20292;-84
2021/01/12 06:26:12;;;;;;;9.30;6.38;;;2.20;99.90;;;;;;5073696;28;20216;-85
2021/01/12 06:28:39;;;;;;;7.75;5.00;;;2.20;99.90;;;;;;5073907;28;20269;-84
2021/01/12 06:31:10;;;;;;;21.67;11.73;;;2.30;99.90;;;;;;5072360;28;20209;-81
2021/01/12 06:33:37;;;;;;;6.47;3.75;;;2.40;99.90;;;;;;5088690;28;20827;-87
2021/01/12 06:36:08;;;;;;;7.47;4.55;;;2.40;99.90;;;;;;5094097;28;20258;-86
2021/01/12 06:38:37;;;;;;;9.25;6.70;;;2.40;99.90;;;;;;5094001;28;20296;-86
2021/01/12 06:41:07;;;;;;;12.88;9.27;;;2.40;99.90;;;;;;5093790;28;20290;-84
2021/01/12 06:43:34;;;;;;;7.13;4.10;;;2.50;99.90;;;;;;5094078;28;20307;-87
2021/01/12 06:46:01;;;;;;;11.80;6.95;;;2.40;99.90;;;;;;5092223;28;20283;-83
2021/01/12 06:48:31;;;;;;;7.47;5.18;;;2.40;99.90;;;;;;5093855;28;20205;-85
2021/01/12 06:51:00;;;;;;;7.63;4.15;;;2.40;99.90;;;;;;5093677;28;20214;-86
2021/01/12 06:53:27;;;;;;;8.55;4.55;;;2.40;99.90;;;;;;5093409;28;20291;-89
2021/01/12 06:56:04;;;;;;;8.57;5.22;;;2.50;99.90;;;;;;5093996;28;20229;-87
2021/01/12 06:58:31;;;;;;;9.65;5.10;;;2.50;99.90;;;;;;5093565;28;20206;-83
2021/01/12 07:01:00;;;;;;;10.13;6.15;;;2.50;99.90;;;;;;5092345;28;20318;-83
2021/01/12 07:03:31;;;;;;;13.45;8.68;;;2.50;99.90;;;;;;5093718;28;20300;-82
2021/01/12 07:06:03;;;;;;;11.45;5.28;;;2.50;99.90;;;;;;5093289;28;20200;-87
2021/01/12 07:08:30;;;;;;;10.27;5.68;;;2.60;99.90;;;;;;5093592;28;20205;-87
2021/01/12 07:11:03;;;;;;;12.93;5.78;;;2.60;99.90;;;;;;5093500;28;20283;-83
2021/01/12 07:13:36;;;;;;;22.83;10.52;;;2.70;99.90;;;;;;5093694;28;20433;-84
2021/01/12 07:16:13;;;;;;;21.67;11.77;;;2.60;99.90;;;;;;5092157;28;20292;-83
2021/01/12 07:18:41;;;;;;;17.77;8.70;;;2.60;99.90;;;;;;5093050;28;20204;-81
2021/01/12 07:21:13;;;;;;;7.80;4.45;;;2.70;99.90;;;;;;5093775;28;20325;-85
2021/01/12 07:23:40;;;;;;;7.57;4.93;;;2.80;99.90;;;;;;5093417;28;20564;-86
2021/01/12 07:26:10;;;;;;;18.08;9.10;;;2.80;99.90;;;;;;5093310;28;20207;-82
2021/01/12 07:28:45;;;;;;;4.95;4.30;;;2.80;99.90;;;;;;5093646;28;20757;-89
2021/01/12 07:31:12;;;;;;;10.57;5.25;;;2.80;99.90;;;;;;5092627;28;20204;-91
2021/01/12 07:33:42;;;;;;;7.38;4.90;;;2.80;99.90;;;;;;5092418;28;20201;-85
2021/01/12 07:36:08;;;;;;;8.60;4.85;;;2.80;99.90;;;;;;5091950;28;20201;-83
2021/01/12 07:38:35;;;;;;;14.05;8.27;;;2.80;99.90;;;;;;5093168;28;20715;-87
2021/01/12 07:41:04;;;;;;;8.30;6.07;;;2.80;99.90;;;;;;5093140;28;20319;-81
2021/01/12 07:43:31;;;;;;;10.35;5.68;;;2.70;99.90;;;;;;5093132;28;20205;-82
2021/01/12 07:46:00;;;;;;;14.30;7.20;;;2.80;99.90;;;;;;5091874;28;20667;-84
2021/01/12 07:48:26;;;;;;;8.77;5.63;;;2.70;99.90;;;;;;5058198;28;20197;-83
2021/01/12 07:50:54;;;;;;;6.57;4.90;;;2.70;99.90;;;;;;5093377;28;20351;-86
2021/01/12 07:53:21;;;;;;;12.73;5.72;;;2.80;99.90;;;;;;5093918;28;20269;-83
2021/01/12 07:55:49;;;;;;;16.45;6.82;;;2.80;99.90;;;;;;5093680;28;20212;-87
2021/01/12 07:58:17;;;;;;;23.27;10.05;;;2.80;99.90;;;;;;5101953;28;20225;-81
2021/01/12 08:00:46;;;;;;;9.15;5.38;;;2.90;99.90;;;;;;5102749;28;20225;-83
2021/01/12 08:03:13;;;;;;;12.30;7.82;;;2.80;99.90;;;;;;5098609;28;20209;-85
2021/01/12 08:05:42;;;;;;;4.53;3.72;;;2.80;99.90;;;;;;5083824;28;20607;-84
2021/01/12 08:08:11;;;;;;;11.50;7.00;;;2.90;99.90;;;;;;5077586;28;20289;-82
2021/01/12 08:10:40;;;;;;;8.20;5.07;;;3.00;99.90;;;;;;5077370;28;20240;-86
2021/01/12 08:13:08;;;;;;;15.00;8.95;;;3.00;99.90;;;;;;5077407;28;20696;-82
2021/01/12 08:15:35;;;;;;;16.10;8.45;;;3.00;99.90;;;;;;5076882;28;20240;-88
2021/01/12 08:18:05;;;;;;;11.75;6.13;;;3.00;99.90;;;;;;5076551;28;20205;-85
2021/01/12 08:20:33;;;;;;;7.68;5.07;;;3.10;99.90;;;;;;5076524;28;20379;-83
2021/01/12 08:23:00;;;;;;;11.32;5.90;;;3.10;99.90;;;;;;5076912;28;20213;-89
2021/01/12 08:25:27;;;;;;;5.68;4.30;;;3.10;99.90;;;;;;5016100;28;20265;-87
2021/01/12 08:27:56;;;;;;;6.80;4.72;;;3.10;99.90;;;;;;5015221;28;20267;-84
2021/01/12 08:30:24;;;;;;;7.28;5.28;;;3.10;99.90;;;;;;5015981;28;20207;-81
2021/01/12 08:32:56;;;;;;;8.38;4.22;;;3.10;99.90;;;;;;5016366;28;20211;-84
2021/01/12 08:35:26;;;;;;;8.75;6.07;;;3.10;99.90;;;;;;5015347;28;20287;-86
2021/01/12 08:37:54;;;;;;;12.55;5.60;;;3.10;99.90;;;;;;5014412;28;20679;-88
2021/01/12 08:40:20;;;;;;;4.30;3.25;;;3.20;99.90;;;;;;5015282;28;20723;-85
2021/01/12 08:42:50;;;;;;;4.78;3.28;;;3.20;99.90;;;;;;5025717;28;20236;-86
2021/01/12 08:45:18;;;;;;;9.65;5.55;;;3.20;99.90;;;;;;5075217;28;20237;-86
2021/01/12 08:47:46;;;;;;;14.05;7.78;;;3.20;99.90;;;;;;5075456;28;20205;-84
2021/01/12 08:50:16;;;;;;;10.68;5.65;;;3.10;99.90;;;;;;5076389;28;20201;-87
2021/01/12 08:52:48;;;;;;;9.45;4.88;;;3.20;99.90;;;;;;5076833;28;20754;-88
2021/01/12 08:55:18;;;;;;;9.05;5.80;;;3.20;99.90;;;;;;5075503;28;20253;-83
2021/01/12 08:57:56;;;;;;;24.83;10.95;;;3.20;99.90;;;;;;5075440;28;20206;-90
2021/01/12 09:00:28;;;;;;;18.38;7.95;;;3.30;99.90;;;;;;5074944;28;20315;-85
2021/01/12 09:02:55;;;;;;;14.80;7.18;;;3.30;99.90;;;;;;5083866;28;20569;-87
2021/01/12 09:05:21;;;;;;;17.27;9.38;;;3.40;99.90;;;;;;5096195;28;20236;-87
2021/01/12 09:07:59;;;;;;;11.75;6.00;;;3.40;99.90;;;;;;5096076;28;20200;-84
2021/01/12 09:10:26;;;;;;;18.83;10.48;;;3.40;99.90;;;;;;5095601;28;20675;-86
2021/01/12 09:12:55;;;;;;;6.43;4.60;;;3.50;99.90;;;;;;5096000;28;20232;-86
2021/01/12 09:15:26;;;;;;;9.77;4.50;;;3.50;99.90;;;;;;5094527;28;20255;-89
2021/01/12 09:18:02;;;;;;;10.77;6.50;;;3.50;99.90;;;;;;5095320;28;20239;-87
2021/01/12 09:20:29;;;;;;;19.98;13.18;;;3.50;99.90;;;;;;5095298;28;20373;-84
2021/01/12 09:23:03;;;;;;;39.58;22.80;;;3.50;99.90;;;;;;5094978;28;20240;-86
2021/01/12 09:25:30;;;;;;;32.22;18.00;;;3.50;99.90;;;;;;5095144;28;20227;-86
2021/01/12 09:28:07;;;;;;;13.93;7.65;;;3.50;99.90;;;;;;5094960;28;20704;-84
2021/01/12 09:30:35;;;;;;;16.48;9.43;;;3.50;99.90;;;;;;5094645;28;20279;-86
2021/01/12 09:33:01;;;;;;;20.67;11.13;;;3.60;99.90;;;;;;5076594;28;20312;-86
2021/01/12 09:35:28;;;;;;;10.82;7.75;;;3.50;99.90;;;;;;5094331;28;20231;-82
2021/01/12 09:38:07;;;;;;;35.80;14.55;;;3.50;99.90;;;;;;5094689;28;20200;-83
2021/01/12 09:40:34;;;;;;;13.82;6.75;;;3.50;99.90;;;;;;5094427;28;20323;-86
2021/01/12 09:43:01;;;;;;;23.23;9.25;;;3.50;99.90;;;;;;5094819;28;20201;-83
2021/01/12 09:45:28;;;;;;;12.85;6.05;;;3.50;99.90;;;;;;5092357;28;20216;-85
2021/01/12 09:47:56;;;;;;;10.13;6.78;;;3.50;99.90;;;;;;5094728;28;20205;-84
2021/01/12 09:50:22;;;;;;;7.95;4.70;;;3.50;99.90;;;;;;5094744;28;20205;-81
2021/01/12 09:52:49;;;;;;;12.00;7.25;;;3.30;99.90;;;;;;5094754;28;20296;-88
2021/01/12 09:55:15;;;;;;;6.65;4.60;;;3.30;99.90;;;;;;5095879;28;20228;-88
2021/01/12 09:57:46;;;;;;;5.28;3.85;;;3.30;99.90;;;;;;5095041;28;20236;-91
2021/01/12 10:00:14;;;;;;;10.90;7.82;;;3.30;99.90;;;;;;5092936;28;20461;-89
2021/01/12 10:02:41;;;;;;;11.02;7.93;;;3.20;99.90;;;;;;5093834;28;20201;-86
2021/01/12 10:05:10;;;;;;;13.27;9.32;;;3.20;99.90;;;;;;5095117;28;20237;-89
2021/01/12 10:07:36;;;;;;;4.50;3.53;;;3.10;99.90;;;;;;5094182;28;20309;-90
2021/01/12 10:10:09;;;;;;;9.38;6.30;;;3.00;99.90;;;;;;5094837;28;20208;-87
2021/01/12 10:12:36;;;;;;;16.83;6.80;;;3.00;99.90;;;;;;5094727;28;20201;-89
2021/01/12 10:15:02;;;;;;;20.15;11.25;;;3.00;99.90;;;;;;5093548;28;20243;-87
2021/01/12 10:17:29;;;;;;;16.63;6.30;;;3.00;99.90;;;;;;5093135;28;20231;-83
2021/01/12 10:19:56;;;;;;;15.15;7.03;;;3.00;99.90;;;;;;5094373;28;20699;-85
2021/01/12 10:22:23;;;;;;;11.82;5.40;;;3.00;99.90;;;;;;5093931;28;20291;-90
2021/01/12 10:24:51;;;;;;;11.57;7.30;;;3.00;99.90;;;;;;5094356;28;20660;-85
2021/01/12 10:27:19;;;;;;;15.60;8.05;;;3.00;99.90;;;;;;5079945;28;20226;-90
2021/01/12 10:29:49;;;;;;;15.85;8.65;;;3.00;99.90;;;;;;5074486;28;20239;-88
2021/01/12 10:32:15;;;;;;;6.90;4.53;;;3.00;99.90;;;;;;5075642;28;20198;-93
2021/01/12 10:34:42;;;;;;;8.48;4.80;;;3.00;99.90;;;;;;5074970;28;20224;-89
2021/01/12 10:37:12;;;;;;;15.75;9.88;;;3.00;99.90;;;;;;5073856;28;20296;-90
2021/01/12 10:39:39;;;;;;;8.02;3.60;;;2.90;99.90;;;;;;5075291;28;20777;-91
2021/01/12 10:42:06;;;;;;;8.85;3.97;;;2.90;99.90;;;;;;5074396;28;20206;-90
2021/01/12 10:44:36;;;;;;;10.70;6.20;;;2.90;99.90;;;;;;5072172;28;20285;-91
2021/01/12 10:47:03;;;;;;;3.78;3.15;;;2.90;99.90;;;;;;5072999;28;20233;-90
2021/01/12 10:49:29;;;;;;;3.53;3.22;;;2.90;99.90;;;;;;5074703;28;20676;-84
2021/01/12 10:52:00;;;;;;;3.72;2.55;;;2.90;99.90;;;;;;5074242;28;20201;-81
2021/01/12 10:54:27;;;;;;;9.43;6.47;;;2.90;99.90;;;;;;5073290;28;20201;-89
2021/01/12 10:56:54;;;;;;;9.48;5.35;;;3.00;99.90;;;;;;5073009;28;20300;-88
2021/01/12 10:59:21;;;;;;;2.22;1.95;;;3.00;99.90;;;;;;5073451;28;20296;-84
2021/01/12 11:01:53;;;;;;;2.47;1.70;;;3.10;99.90;;;;;;5071109;28;20301;-86
2021/01/12 11:04:20;;;;;;;1.27;1.05;;;3.00;99.90;;;;;;5075702;28;20335;-90
2021/01/12 11:06:47;;;;;;;4.65;3.45;;;3.00;99.90;;;;;;5073009;28;20229;-86
2021/01/12 11:09:14;;;;;;;10.63;6.30;;;3.00;99.90;;;;;;5074932;28;20210;-85
2021/01/12 11:11:41;;;;;;;2.75;1.83;;;3.00;99.90;;;;;;5073424;28;20568;-81
2021/01/12 11:14:09;;;;;;;10.32;6.35;;;3.00;99.90;;;;;;5073609;28;20296;-88
2021/01/12 11:16:37;;;;;;;9.50;5.28;;;3.00;99.90;;;;;;5079820;28;20201;-93
2021/01/12 11:19:04;;;;;;;4.97;3.35;;;3.00;99.90;;;;;;5074993;28;20215;-81
2021/01/12 11:21:31;;;;;;;5.03;3.35;;;3.00;99.90;;;;;;5072264;28;20746;-84
2021/01/12 11:23:58;;;;;;;3.85;2.13;;;3.00;99.90;;;;;;5075092;28;20205;-85
2021/01/12 11:26:29;;;;;;;2.80;2.50;;;2.90;99.90;;;;;;5073323;28;20204;-83
2021/01/12 11:28:56;;;;;;;4.50;2.85;;;3.00;99.90;;;;;;5072625;28;20296;-83
2021/01/12 11:31:24;;;;;;;1.40;0.95;;;3.00;99.90;;;;;;5071769;28;20595;-82
2021/01/12 11:33:51;;;;;;;1.48;1.38;;;3.00;99.90;;;;;;5073351;28;20525;-90
2021/01/12 11:36:17;;;;;;;2.10;1.90;;;3.10;99.90;;;;;;5072732;28;20477;-90
2021/01/12 11:38:44;;;;;;;1.08;1.02;;;3.10;99.90;;;;;;5090556;28;20611;-88
2021/01/12 11:41:11;;;;;;;1.45;0.85;;;3.10;99.90;;;;;;5097175;28;20264;-85
2021/01/12 11:43:38;;;;;;;2.30;1.25;;;3.00;99.90;;;;;;5098122;28;20363;-89
2021/01/12 11:46:07;;;;;;;1.35;0.85;;;3.10;99.90;;;;;;5097004;28;20291;-92
2021/01/12 11:48:37;;;;;;;3.25;0.80;;;3.10;99.90;;;;;;5098663;28;20228;-83
2021/01/12 11:51:05;;;;;;;0.70;0.70;;;3.20;99.90;;;;;;5096308;28;20211;-85
2021/01/12 11:53:31;;;;;;;1.58;0.70;;;3.20;99.90;;;;;;5097348;28;20261;-86
2021/01/12 11:55:59;;;;;;;0.88;0.63;;;3.20;99.90;;;;;;5096827;28;20200;-87
2021/01/12 11:58:25;;;;;;;0.88;0.75;;;3.20;99.90;;;;;;5097732;28;20211;-91
2021/01/12 12:00:51;;;;;;;0.50;0.50;;;3.10;99.90;;;;;;5095722;28;20315;-85
2021/01/12 12:03:19;;;;;;;0.90;0.80;;;3.10;99.90;;;;;;5096493;28;20225;-87
2021/01/12 12:05:47;;;;;;;1.23;0.93;;;3.20;99.90;;;;;;5097059;28;20205;-86
2021/01/12 12:08:13;;;;;;;0.77;0.70;;;3.10;99.90;;;;;;5097634;28;20306;-87
2021/01/12 12:10:49;;;;;;;1.40;1.35;;;3.20;99.90;;;;;;5097629;28;20287;-89
2021/01/12 12:13:17;;;;;;;3.47;1.55;;;3.20;99.90;;;;;;5097174;28;20291;-88
2021/01/12 12:15:47;;;;;;;22.73;9.20;;;3.20;99.90;;;;;;5100808;28;20243;-91
2021/01/12 12:18:13;;;;;;;13.30;6.72;;;3.20;99.90;;;;;;5081826;28;20209;-84
2021/01/12 12:20:41;;;;;;;6.53;3.45;;;3.20;99.90;;;;;;5076609;28;20319;-88
2021/01/12 12:23:08;;;;;;;8.48;5.75;;;3.20;99.90;;;;;;5076478;28;20624;-89
2021/01/12 12:25:35;;;;;;;3.33;1.70;;;3.20;99.90;;;;;;5076661;28;20296;-85
2021/01/12 12:28:03;;;;;;;1.27;1.17;;;3.20;99.90;;;;;;5076270;28;20271;-85
2021/01/12 12:30:30;;;;;;;4.20;3.22;;;3.20;99.90;;;;;;5075792;28;20233;-88
2021/01/12 12:32:56;;;;;;;2.35;1.60;;;3.20;99.90;;;;;;5075493;28;20244;-86
2021/01/12 12:35:23;;;;;;;9.32;5.82;;;3.10;99.90;;;;;;5076142;28;20573;-88
2021/01/12 12:37:50;;;;;;;3.90;3.50;;;3.10;99.90;;;;;;5075935;28;20288;-90
2021/01/12 12:40:19;;;;;;;2.28;1.67;;;3.10;99.90;;;;;;5076079;28;20320;-84
2021/01/12 12:42:48;;;;;;;14.65;9.90;;;3.20;99.90;;;;;;5075836;28;20212;-87
2021/01/12 12:45:14;;;;;;;9.82;3.13;;;3.20;99.90;;;;;;5076062;28;20794;-87
2021/01/12 12:47:41;;;;;;;3.40;1.25;;;3.20;99.90;;;;;;5078424;28;20235;-89
2021/01/12 12:50:09;;;;;;;1.95;1.70;;;3.10;99.90;;;;;;5076790;28;20233;-93
2021/01/12 12:52:36;;;;;;;3.50;2.60;;;3.10;99.90;;;;;;5077085;28;20208;-89
2021/01/12 12:55:04;;;;;;;6.88;4.07;;;3.10;99.90;;;;;;5076835;28;20248;-86
2021/01/12 12:57:31;;;;;;;5.80;2.67;;;3.20;99.90;;;;;;5086496;28;20756;-89